首页
METAR-TAF:

METAR-TAF

机场 :

赫羅納-布拉瓦海岸機場

赫罗纳, 西班牙

纬度: 41-54N, 经度: 002-46E, 海拔: 143米

当前天气观测

该预报发布于32分钟前的18:30 UTC
风速5节,风向南转西南
温度 11°C
湿度 82%
气压 1016 hPa
能见度10公里或以上
少量云层高于5000英尺

METAR: LEGE 281830Z 20005KT 9999 FEW050 11/08 Q1016

时间: 20:02 (19:02 UTC)

预报

该预报发布于2小时和2分钟前的17:00 UTC
预报有效从28日的 18点(UTC)到 29日的 18点(UTC)
风速8节,风向
能见度10公里或以上
少量云层高于6000英尺
成为
从 28日的 18点(UTC)到 28日的 21点(UTC)
风速4节,风向多变
成为
从 29日的 09点(UTC)到 29日的 12点(UTC)
风速10节,风向

TAF: LEGE 281700Z 2818/2918 18008KT 9999 FEW060 TX21/2912Z TN06/2906Z BECMG 2818/2821 VRB04KT BECMG 2909/2912 18010KT

超过4000个机场的气象观测和天气预报(METAR&TAF报告)。

可查询的气象台以黄色和红色小点在地图上表示。

将鼠标移到小点上方,可查看气象台名称。

然后点击查看天气观测和预报。

如需切换地图:点击带黑十字的绿色按钮放大地图;点击带横线的绿色按钮缩小地图;或者点击绿色箭头查看邻近地区的地图。


METAR-TAF: